createdAt,value
2022-12-16T00:01:28.440Z,25.88
2022-12-16T00:03:59.957Z,23.67
2022-12-16T00:06:30.659Z,23.60
2022-12-16T00:08:59.934Z,25.83
2022-12-16T00:11:32.473Z,27.02
2022-12-16T00:14:06.676Z,24.80
2022-12-16T00:16:39.438Z,24.05
2022-12-16T00:19:10.905Z,22.15
2022-12-16T00:21:40.430Z,25.25
2022-12-16T00:24:09.464Z,25.63
2022-12-16T00:26:37.885Z,25.35
2022-12-16T00:29:11.078Z,24.35
2022-12-16T00:31:42.039Z,27.50
2022-12-16T00:34:11.961Z,24.92
2022-12-16T00:36:45.632Z,25.15
2022-12-16T00:39:15.495Z,25.27
2022-12-16T00:41:48.579Z,24.90
2022-12-16T00:44:20.516Z,24.60
2022-12-16T00:46:52.110Z,26.67
2022-12-16T00:49:25.323Z,26.92
2022-12-16T00:51:54.115Z,25.67
2022-12-16T00:54:24.079Z,23.20
2022-12-16T00:56:53.335Z,25.02
2022-12-16T00:59:24.999Z,25.48
2022-12-16T01:01:53.786Z,23.85
2022-12-16T01:04:27.785Z,24.88
2022-12-16T01:06:56.762Z,24.92
2022-12-16T01:09:25.414Z,26.30
2022-12-16T01:11:55.455Z,25.05
2022-12-16T01:14:26.319Z,26.45
2022-12-16T01:16:56.281Z,26.42
2022-12-16T01:19:26.080Z,25.23
2022-12-16T01:21:57.510Z,24.77
2022-12-16T01:24:29.759Z,18.17
2022-12-16T01:26:58.597Z,26.50
2022-12-16T01:29:27.716Z,24.88
2022-12-16T01:31:58.716Z,25.23
2022-12-16T01:34:28.174Z,25.42
2022-12-16T01:36:57.516Z,26.17
2022-12-16T01:39:27.470Z,25.77
2022-12-16T01:41:58.423Z,26.05
2022-12-16T01:44:27.811Z,24.67
2022-12-16T01:46:59.617Z,25.52
2022-12-16T01:49:31.706Z,25.88
2022-12-16T01:52:02.080Z,25.00
2022-12-16T01:54:40.399Z,24.35
2022-12-16T01:57:19.286Z,24.67
2022-12-16T01:59:49.870Z,25.00
2022-12-16T02:02:19.879Z,24.88
2022-12-16T02:05:08.883Z,25.23
2022-12-16T02:07:40.216Z,26.20
2022-12-16T02:10:11.956Z,24.05
2022-12-16T02:12:51.790Z,24.60
2022-12-16T02:15:26.154Z,23.08
2022-12-16T02:18:19.493Z,25.98
2022-12-16T02:20:47.720Z,25.27
2022-12-16T02:23:37.151Z,22.67
2022-12-16T02:26:17.313Z,23.95
2022-12-16T02:28:51.151Z,23.38
2022-12-16T02:31:27.427Z,24.17
2022-12-16T02:34:14.527Z,23.25
2022-12-16T02:36:45.484Z,25.38
2022-12-16T02:39:21.880Z,24.08
2022-12-16T02:42:09.017Z,25.13
2022-12-16T02:44:40.894Z,25.90
2022-12-16T02:47:09.475Z,24.85
2022-12-16T02:49:46.005Z,26.58
2022-12-16T02:52:18.552Z,23.67
2022-12-16T02:54:47.539Z,20.42
2022-12-16T02:57:26.639Z,23.73
2022-12-16T02:59:56.622Z,24.65
2022-12-16T03:02:37.535Z,25.70
2022-12-16T03:05:27.341Z,22.90
2022-12-16T03:07:57.017Z,23.08
2022-12-16T03:10:30.337Z,22.90
2022-12-16T03:13:00.688Z,22.60
2022-12-16T03:15:32.185Z,23.35
2022-12-16T03:18:07.610Z,24.35
2022-12-16T03:20:51.115Z,22.48
2022-12-16T03:23:29.172Z,22.85
2022-12-16T03:26:19.962Z,22.80
2022-12-16T03:28:55.069Z,22.73
2022-12-16T03:31:42.287Z,23.15
2022-12-16T03:34:17.725Z,24.60
2022-12-16T03:36:51.487Z,23.27
2022-12-16T03:39:23.885Z,23.15
2022-12-16T03:41:53.897Z,23.13
2022-12-16T03:44:26.199Z,21.50
2022-12-16T03:46:58.022Z,22.38
2022-12-16T03:49:26.561Z,22.45
2022-12-16T03:51:56.299Z,22.02
2022-12-16T03:54:25.812Z,22.52
2022-12-16T03:56:54.303Z,23.42
2022-12-16T03:59:22.687Z,24.10
2022-12-16T04:01:55.370Z,23.00
2022-12-16T04:04:25.199Z,21.45
2022-12-16T04:07:08.053Z,22.38
2022-12-16T04:09:37.152Z,23.15
2022-12-16T04:15:14.387Z,21.27
2022-12-16T04:21:14.398Z,19.95
2022-12-16T04:24:11.485Z,21.13
2022-12-16T04:26:54.135Z,20.40
2022-12-16T04:29:24.351Z,22.73
2022-12-16T04:31:53.044Z,20.20
2022-12-16T04:34:27.403Z,23.00
2022-12-16T04:37:17.876Z,20.70
2022-12-16T04:40:08.117Z,21.30
2022-12-16T04:43:01.577Z,19.75
2022-12-16T04:45:50.499Z,20.73
2022-12-16T04:48:36.255Z,21.50
2022-12-16T04:51:22.173Z,20.05
2022-12-16T04:54:10.978Z,21.45
2022-12-16T04:57:03.629Z,20.17
2022-12-16T04:59:54.834Z,20.77
2022-12-16T05:02:43.289Z,19.88
2022-12-16T05:05:33.264Z,20.35
2022-12-16T05:08:22.385Z,19.13
2022-12-16T05:11:10.665Z,19.23
2022-12-16T05:14:00.042Z,19.70
2022-12-16T05:16:48.825Z,22.77
2022-12-16T05:19:35.171Z,19.45
2022-12-16T05:22:24.737Z,21.23
2022-12-16T05:25:11.636Z,19.58
2022-12-16T05:28:03.915Z,20.90
2022-12-16T05:30:52.514Z,20.35
2022-12-16T05:33:41.485Z,21.33
2022-12-16T05:36:29.063Z,22.70
2022-12-16T05:39:20.063Z,23.52
2022-12-16T05:42:06.741Z,22.45
2022-12-16T05:44:59.054Z,23.92
2022-12-16T05:47:49.811Z,21.75
2022-12-16T05:50:36.201Z,22.75
2022-12-16T05:53:31.479Z,24.13
2022-12-16T05:56:19.760Z,22.48
2022-12-16T05:59:06.287Z,20.92
2022-12-16T06:01:52.908Z,18.85
2022-12-16T06:04:42.396Z,22.33
2022-12-16T06:07:28.337Z,18.90
2022-12-16T06:10:16.767Z,21.27
2022-12-16T06:13:05.770Z,21.38
2022-12-16T06:15:55.459Z,21.52
2022-12-16T06:18:41.203Z,22.52
2022-12-16T06:21:30.592Z,21.77
2022-12-16T06:24:18.142Z,20.25
2022-12-16T06:27:06.235Z,20.85
2022-12-16T06:29:55.714Z,23.20
2022-12-16T06:32:46.056Z,20.13
2022-12-16T06:35:32.473Z,22.77
2022-12-16T06:38:24.450Z,20.55
2022-12-16T06:41:10.534Z,19.00
2022-12-16T06:43:58.840Z,20.67
2022-12-16T06:46:48.843Z,20.27
2022-12-16T06:49:35.314Z,21.27
2022-12-16T06:52:31.124Z,20.20
2022-12-16T06:55:17.883Z,19.50
2022-12-16T06:58:25.989Z,20.50
2022-12-16T07:01:13.397Z,22.30
2022-12-16T07:04:03.994Z,21.48
2022-12-16T07:06:57.923Z,21.85
2022-12-16T07:09:51.414Z,22.55
2022-12-16T07:12:39.560Z,22.48
2022-12-16T07:15:28.457Z,21.70
2022-12-16T07:18:20.784Z,23.92
2022-12-16T07:21:06.810Z,22.98
2022-12-16T07:23:55.050Z,22.98
2022-12-16T07:26:41.750Z,21.48
2022-12-16T07:29:31.272Z,21.17
2022-12-16T07:32:20.250Z,19.63
2022-12-16T07:35:13.677Z,21.77
2022-12-16T07:38:02.417Z,19.92
2022-12-16T07:40:50.160Z,23.50
2022-12-16T07:43:39.594Z,23.13
2022-12-16T07:46:25.794Z,24.83
2022-12-16T07:49:13.724Z,24.05
2022-12-16T07:52:00.670Z,22.48
2022-12-16T07:54:48.552Z,21.35
2022-12-16T07:57:37.531Z,21.13
2022-12-16T08:00:25.367Z,22.73
2022-12-16T08:03:28.050Z,22.27
2022-12-16T08:06:15.805Z,21.50
2022-12-16T08:09:02.921Z,22.20
2022-12-16T08:11:52.759Z,22.85
2022-12-16T08:14:39.713Z,21.48
2022-12-16T08:17:26.656Z,23.98
2022-12-16T08:20:14.623Z,29.52
2022-12-16T08:23:07.072Z,27.73
2022-12-16T08:25:58.735Z,28.85
2022-12-16T08:28:44.470Z,23.77
2022-12-16T08:31:30.349Z,28.60
2022-12-16T08:34:18.753Z,25.65
2022-12-16T08:37:19.312Z,25.50
2022-12-16T08:40:33.601Z,26.33
2022-12-16T08:43:15.283Z,22.50
2022-12-16T08:46:11.720Z,22.38
2022-12-16T08:48:58.584Z,26.85
2022-12-16T08:51:47.964Z,28.15
2022-12-16T08:54:39.389Z,26.77
2022-12-16T08:57:30.824Z,28.77
2022-12-16T09:00:47.677Z,28.45
2022-12-16T09:03:54.983Z,45.58
2022-12-16T09:06:46.210Z,33.70
2022-12-16T09:09:41.940Z,29.77
2022-12-16T09:12:31.875Z,30.85
2022-12-16T09:15:21.322Z,27.83
2022-12-16T09:18:14.660Z,28.92
2022-12-16T09:21:00.810Z,29.55
2022-12-16T09:23:48.515Z,27.77
2022-12-16T09:26:44.853Z,29.25
2022-12-16T09:29:33.824Z,28.88
2022-12-16T09:32:18.486Z,28.35
2022-12-16T09:35:23.095Z,26.30
2022-12-16T09:38:11.039Z,28.50
2022-12-16T09:41:01.549Z,27.63
2022-12-16T09:44:07.015Z,28.25
2022-12-16T09:46:53.170Z,26.83
2022-12-16T09:49:42.251Z,34.50
2022-12-16T09:52:32.784Z,31.35
2022-12-16T09:55:19.101Z,31.63
2022-12-16T09:58:11.170Z,32.80
2022-12-16T10:01:00.383Z,30.58
2022-12-16T10:03:57.038Z,32.72
2022-12-16T10:06:56.041Z,31.15
2022-12-16T10:09:46.420Z,32.88
2022-12-16T10:12:41.678Z,33.30
2022-12-16T10:15:44.514Z,34.47
2022-12-16T10:18:58.947Z,35.53
2022-12-16T10:21:51.658Z,33.03
2022-12-16T10:24:40.550Z,34.95
2022-12-16T10:27:35.907Z,35.13
2022-12-16T10:30:30.702Z,35.03
2022-12-16T10:33:27.688Z,36.67
2022-12-16T10:36:14.780Z,36.78
2022-12-16T10:39:07.793Z,37.03
2022-12-16T10:41:58.689Z,38.70
2022-12-16T10:44:52.727Z,38.75
2022-12-16T10:47:43.679Z,39.33
2022-12-16T10:50:31.729Z,40.72
2022-12-16T10:53:21.503Z,39.03
2022-12-16T10:56:41.645Z,37.13
2022-12-16T10:59:30.243Z,38.53
2022-12-16T11:02:24.128Z,42.13
2022-12-16T11:05:10.467Z,39.78
2022-12-16T11:08:03.881Z,38.85
2022-12-16T11:10:56.313Z,37.97
2022-12-16T11:13:47.586Z,39.38
2022-12-16T11:16:40.875Z,38.67
2022-12-16T11:19:40.054Z,35.50
2022-12-16T11:22:31.311Z,36.80
2022-12-16T11:25:31.859Z,38.88
2022-12-16T11:28:24.028Z,39.75
2022-12-16T11:31:12.040Z,37.70
2022-12-16T11:34:07.165Z,40.97
2022-12-16T11:36:55.478Z,36.78
2022-12-16T11:39:45.920Z,38.67
2022-12-16T11:42:45.879Z,36.60
2022-12-16T11:45:33.537Z,39.90
2022-12-16T11:48:25.440Z,38.97
2022-12-16T11:51:13.033Z,39.72
2022-12-16T11:54:19.098Z,39.58
2022-12-16T11:57:05.359Z,39.10
2022-12-16T12:00:06.143Z,40.80
2022-12-16T12:03:21.864Z,38.97
2022-12-16T12:06:14.295Z,38.25
2022-12-16T12:09:19.372Z,38.00
2022-12-16T12:12:14.618Z,36.30
2022-12-16T12:15:20.802Z,35.40
2022-12-16T12:18:06.523Z,36.03
2022-12-16T12:21:01.426Z,32.10
2022-12-16T12:24:00.271Z,36.80
2022-12-16T12:26:49.340Z,35.35
2022-12-16T12:29:44.582Z,34.25
2022-12-16T12:32:48.626Z,37.47
2022-12-16T12:35:53.573Z,36.45
2022-12-16T12:38:47.750Z,38.15
2022-12-16T12:41:56.814Z,37.40
2022-12-16T12:44:48.894Z,37.33
2022-12-16T12:47:36.065Z,38.15
2022-12-16T12:50:35.951Z,37.47
2022-12-16T12:53:34.388Z,38.20
2022-12-16T12:56:34.936Z,40.22
2022-12-16T12:59:27.137Z,40.40
2022-12-16T13:02:28.804Z,40.45
2022-12-16T13:05:23.994Z,42.08
2022-12-16T13:08:13.650Z,39.80
2022-12-16T13:11:15.980Z,40.58
2022-12-16T13:14:01.863Z,43.95
2022-12-16T13:17:05.237Z,45.17
2022-12-16T13:19:53.126Z,41.60
2022-12-16T13:22:46.206Z,44.33
2022-12-16T13:25:51.107Z,43.42
2022-12-16T13:28:57.372Z,39.72
2022-12-16T13:31:43.977Z,41.10
2022-12-16T13:34:33.780Z,42.97
2022-12-16T13:37:29.816Z,40.47
2022-12-16T13:40:32.569Z,40.83
2022-12-16T13:43:23.854Z,43.50
2022-12-16T13:46:18.354Z,43.05
2022-12-16T13:49:04.159Z,42.78
2022-12-16T13:51:55.779Z,41.22
2022-12-16T13:54:49.874Z,39.65
2022-12-16T13:57:36.940Z,40.60
2022-12-16T14:00:23.901Z,40.00
2022-12-16T14:03:18.918Z,42.67
2022-12-16T14:06:08.373Z,42.90
2022-12-16T14:08:56.933Z,41.63
2022-12-16T14:11:48.815Z,44.50
2022-12-16T14:14:39.234Z,55.28
2022-12-16T14:17:40.756Z,42.78
2022-12-16T14:20:45.275Z,42.63
2022-12-16T14:23:58.013Z,43.25
2022-12-16T14:26:44.859Z,44.58
2022-12-16T14:29:50.060Z,43.55
2022-12-16T14:32:42.414Z,41.78
2022-12-16T14:35:32.367Z,44.60
2022-12-16T14:38:31.215Z,45.55
2022-12-16T14:41:17.008Z,44.05
2022-12-16T14:44:03.147Z,46.30
2022-12-16T14:46:50.539Z,46.83
2022-12-16T14:49:36.744Z,44.33
2022-12-16T14:52:35.037Z,46.13
2022-12-16T14:55:36.598Z,45.33
2022-12-16T14:58:29.051Z,43.55
2022-12-16T15:01:20.327Z,45.90
2022-12-16T15:04:07.747Z,42.40
2022-12-16T15:06:59.522Z,42.40
2022-12-16T15:09:48.087Z,45.60
2022-12-16T15:12:54.810Z,43.25
2022-12-16T15:15:51.039Z,41.20
2022-12-16T15:19:06.111Z,41.72
2022-12-16T15:21:52.754Z,38.15
2022-12-16T15:24:41.671Z,38.83
2022-12-16T15:27:33.524Z,39.92
2022-12-16T15:30:20.399Z,39.33
2022-12-16T15:33:13.778Z,39.58
2022-12-16T15:36:02.083Z,38.28
2022-12-16T15:38:50.742Z,40.72
2022-12-16T15:41:54.955Z,39.40
2022-12-16T15:44:45.238Z,39.90
2022-12-16T15:47:39.229Z,41.13
2022-12-16T15:53:11.367Z,38.90
2022-12-16T15:56:04.500Z,41.33
2022-12-16T15:58:52.770Z,39.13
2022-12-16T16:01:41.972Z,40.75
2022-12-16T16:04:37.564Z,39.55
2022-12-16T16:07:32.589Z,41.38
2022-12-16T16:10:34.035Z,42.53
2022-12-16T16:13:20.387Z,41.17
2022-12-16T16:16:08.587Z,41.85
2022-12-16T16:18:58.089Z,39.72
2022-12-16T16:21:44.432Z,39.40
2022-12-16T16:24:33.472Z,39.45
2022-12-16T16:27:21.229Z,39.10
2022-12-16T16:30:12.855Z,40.45
2022-12-16T16:33:18.594Z,40.20
2022-12-16T16:36:06.162Z,37.72
2022-12-16T16:38:54.417Z,43.95
2022-12-16T16:41:41.381Z,39.08
2022-12-16T16:44:29.698Z,41.35
2022-12-16T16:47:16.516Z,39.17
2022-12-16T16:50:06.166Z,39.40
2022-12-16T16:52:52.187Z,42.50
2022-12-16T16:55:39.673Z,37.25
2022-12-16T16:58:34.732Z,36.72
2022-12-16T17:01:21.008Z,38.85
2022-12-16T17:04:10.054Z,45.33
2022-12-16T17:06:56.028Z,41.95
2022-12-16T17:09:42.029Z,39.70
2022-12-16T17:12:48.681Z,38.53
2022-12-16T17:15:40.431Z,38.83
2022-12-16T17:18:29.074Z,41.50
2022-12-16T17:21:15.096Z,43.42
2022-12-16T17:24:08.207Z,41.72
2022-12-16T17:26:59.674Z,38.75
2022-12-16T17:29:50.143Z,38.60
2022-12-16T17:32:36.762Z,38.72
2022-12-16T17:35:23.666Z,41.53
2022-12-16T17:38:10.060Z,42.47
2022-12-16T17:40:56.019Z,42.90
2022-12-16T17:43:42.494Z,38.42
2022-12-16T17:46:30.575Z,41.75
2022-12-16T17:49:18.939Z,41.30
2022-12-16T17:52:08.180Z,41.72
2022-12-16T17:54:58.276Z,43.30
2022-12-16T17:57:44.607Z,41.22
2022-12-16T18:00:32.329Z,42.63
2022-12-16T18:03:30.383Z,40.50
2022-12-16T18:06:16.819Z,42.13
2022-12-16T18:09:03.302Z,43.70
2022-12-16T18:11:51.901Z,39.88
2022-12-16T18:14:40.217Z,41.85
2022-12-16T18:17:27.146Z,42.15
2022-12-16T18:20:15.373Z,40.50
2022-12-16T18:23:04.148Z,41.13
2022-12-16T18:25:50.287Z,41.03
2022-12-16T18:28:38.871Z,40.33
2022-12-16T18:31:29.973Z,42.33
2022-12-16T18:34:20.807Z,39.72
2022-12-16T18:37:06.960Z,42.30
2022-12-16T18:39:52.859Z,42.33
2022-12-16T18:42:38.870Z,42.70
2022-12-16T18:45:24.734Z,38.67
2022-12-16T18:48:17.111Z,36.85
2022-12-16T18:51:03.132Z,38.28
2022-12-16T18:53:50.504Z,38.58
2022-12-16T18:56:41.777Z,37.80
2022-12-16T18:59:27.843Z,33.25
2022-12-16T19:02:14.801Z,38.50
2022-12-16T19:05:02.289Z,38.25
2022-12-16T19:08:02.196Z,34.25
2022-12-16T19:10:57.247Z,35.00
2022-12-16T19:16:35.843Z,34.47
2022-12-16T19:19:21.991Z,31.10
2022-12-16T19:22:08.394Z,32.50
2022-12-16T19:24:56.357Z,34.13
2022-12-16T19:27:44.813Z,35.38
2022-12-16T19:30:36.167Z,34.90
2022-12-16T19:33:28.103Z,33.28
2022-12-16T19:36:15.511Z,34.22
2022-12-16T19:39:04.269Z,35.33
2022-12-16T19:41:53.528Z,33.50
2022-12-16T19:44:43.252Z,36.00
2022-12-16T19:47:29.208Z,35.88
2022-12-16T19:50:15.517Z,37.00
2022-12-16T19:53:08.187Z,35.83
2022-12-16T19:55:57.177Z,46.38
2022-12-16T19:58:45.280Z,42.33
2022-12-16T20:01:33.853Z,37.25
2022-12-16T20:04:25.153Z,39.03
2022-12-16T20:07:11.751Z,38.15
2022-12-16T20:09:56.968Z,37.60
2022-12-16T20:12:51.144Z,31.65
2022-12-16T20:15:37.532Z,36.90
2022-12-16T20:18:25.559Z,33.88
2022-12-16T20:21:19.276Z,31.27
2022-12-16T20:24:05.671Z,31.70
2022-12-16T20:26:53.726Z,33.00
2022-12-16T20:29:43.850Z,33.17
2022-12-16T20:32:30.795Z,34.67
2022-12-16T20:35:17.630Z,32.50
2022-12-16T20:38:04.684Z,33.80
2022-12-16T20:40:51.725Z,31.08
2022-12-16T20:43:38.733Z,34.33
2022-12-16T20:46:25.359Z,32.88
2022-12-16T20:49:13.827Z,31.05
2022-12-16T20:52:01.933Z,37.38
2022-12-16T20:54:48.299Z,33.20
2022-12-16T20:57:45.658Z,35.50
2022-12-16T21:00:32.197Z,30.83
2022-12-16T21:03:51.791Z,30.83
2022-12-16T21:06:40.905Z,33.15
2022-12-16T21:09:29.520Z,30.67
2022-12-16T21:12:15.915Z,31.38
2022-12-16T21:15:07.708Z,34.03
2022-12-16T21:17:57.876Z,33.60
2022-12-16T21:20:44.964Z,35.47
2022-12-16T21:23:34.952Z,32.65
2022-12-16T21:26:25.027Z,34.28
2022-12-16T21:29:13.182Z,33.25
2022-12-16T21:31:59.625Z,34.67
2022-12-16T21:34:47.967Z,32.85
2022-12-16T21:37:35.058Z,35.30
2022-12-16T21:40:21.563Z,33.25
2022-12-16T21:43:11.121Z,31.73
2022-12-16T21:45:59.684Z,33.67
2022-12-16T21:48:45.721Z,32.17
2022-12-16T21:51:32.628Z,34.50
2022-12-16T21:54:21.017Z,32.95
2022-12-16T21:57:09.656Z,36.85
2022-12-16T22:00:00.860Z,38.33
2022-12-16T22:02:54.896Z,36.10
2022-12-16T22:05:42.967Z,32.30
2022-12-16T22:08:32.583Z,39.30
2022-12-16T22:11:27.150Z,34.55
2022-12-16T22:14:14.136Z,32.85
2022-12-16T22:17:04.373Z,33.67
2022-12-16T22:19:53.515Z,33.30
2022-12-16T22:22:43.779Z,32.85
2022-12-16T22:25:29.990Z,33.45
2022-12-16T22:28:16.911Z,33.97
2022-12-16T22:31:03.413Z,31.25
2022-12-16T22:33:50.657Z,39.70
2022-12-16T22:36:43.240Z,31.90
2022-12-16T22:39:29.399Z,33.22
2022-12-16T22:42:16.139Z,36.97
2022-12-16T22:45:02.062Z,37.88
2022-12-16T22:47:50.131Z,31.85
2022-12-16T22:50:41.239Z,31.30
2022-12-16T22:53:31.562Z,31.63
2022-12-16T22:56:18.253Z,40.92
2022-12-16T22:59:19.058Z,32.40
2022-12-16T23:02:06.149Z,31.83
2022-12-16T23:04:52.263Z,31.92
2022-12-16T23:07:38.239Z,29.83
2022-12-16T23:10:26.739Z,34.30
2022-12-16T23:13:12.912Z,30.88
2022-12-16T23:16:07.588Z,37.45
2022-12-16T23:19:06.820Z,38.45
2022-12-16T23:21:55.709Z,32.90
2022-12-16T23:24:45.481Z,30.08
2022-12-16T23:27:31.688Z,28.77
2022-12-16T23:30:18.561Z,33.58
2022-12-16T23:33:19.992Z,28.05
2022-12-16T23:36:09.644Z,31.27
2022-12-16T23:39:04.710Z,33.50
2022-12-16T23:41:53.626Z,29.92
2022-12-16T23:44:43.035Z,28.13
2022-12-16T23:47:30.051Z,30.73
2022-12-16T23:50:18.568Z,26.63
2022-12-16T23:53:04.814Z,28.55
2022-12-16T23:55:53.716Z,29.13
2022-12-16T23:58:43.042Z,29.63
